Time;durP1;ratioP1;P1;durP2;ratioP2;P2;SDS_P1;SDS_P2;PMS_P1;PMS_P2;Temp;Humidity;BMP_temperature;BMP_pressure;BME280_temperature;BME280_humidity;BME280_pressure;Samples;Min_cycle;Max_cycle;Signal;HPM_P1;HPM_P2
2021/03/11 00:00:27;;;;;;;1.03;0.90;;;;;;;8.54;92.92;99687.78;5043544;28;20470;-54
2021/03/11 00:02:53;;;;;;;0.30;0.20;;;;;;;8.57;92.76;99692.97;5032304;28;20448;-54
2021/03/11 00:05:20;;;;;;;0.30;0.20;;;;;;;8.57;93.55;99676.22;5034273;28;20968;-54
2021/03/11 00:07:47;;;;;;;0.30;0.20;;;;;;;8.34;93.65;99668.94;5038820;28;20471;-54
2021/03/11 00:10:13;;;;;;;0.30;0.20;;;;;;;8.31;93.57;99654.00;5041186;28;20943;-54
2021/03/11 00:12:41;;;;;;;0.30;0.20;;;;;;;8.37;93.48;99650.34;5045453;28;20869;-54
2021/03/11 00:15:11;;;;;;;0.30;0.20;;;;;;;8.36;94.21;99650.34;5043422;28;20840;-54
2021/03/11 00:17:37;;;;;;;0.30;0.20;;;;;;;8.23;93.53;99633.97;5038642;28;20478;-54
2021/03/11 00:20:09;;;;;;;0.30;0.20;;;;;;;8.29;94.01;99633.78;5040565;28;20547;-53
2021/03/11 00:22:35;;;;;;;0.30;0.20;;;;;;;8.17;94.24;99628.84;5051879;28;20987;-53
2021/03/11 00:25:03;;;;;;;0.30;0.10;;;;;;;8.25;93.71;99613.59;5051543;28;20940;-53
2021/03/11 00:27:29;;;;;;;0.30;0.20;;;;;;;8.21;93.29;99610.16;5044952;28;20497;-54
2021/03/11 00:29:56;;;;;;;0.30;0.20;;;;;;;8.28;93.75;99621.44;5045330;28;20459;-54
2021/03/11 00:32:22;;;;;;;0.30;0.20;;;;;;;8.18;93.85;99630.56;5051846;28;20505;-54
2021/03/11 00:34:48;;;;;;;0.30;0.20;;;;;;;8.26;93.36;99623.28;5050367;28;20520;-53
2021/03/11 00:37:14;;;;;;;0.30;0.20;;;;;;;8.21;93.84;99633.13;5045092;28;20500;-54
2021/03/11 00:39:40;;;;;;;0.30;0.20;;;;;;;8.21;93.95;99620.75;5045260;28;20452;-54
2021/03/11 00:42:07;;;;;;;1.33;1.33;;;;;;;8.18;93.34;99612.91;5051860;28;20446;-54
2021/03/11 00:44:33;;;;;;;0.30;0.20;;;;;;;8.41;93.80;99616.69;5051866;28;20451;-54
2021/03/11 00:47:00;;;;;;;0.30;0.20;;;;;;;8.31;92.99;99611.63;5032070;28;20486;-54
2021/03/11 00:49:26;;;;;;;0.30;0.20;;;;;;;8.26;93.43;99610.03;5043984;28;20470;-54
2021/03/11 00:51:52;;;;;;;0.30;0.20;;;;;;;8.23;93.26;99607.50;5051307;28;20454;-54
2021/03/11 00:54:18;;;;;;;0.30;0.20;;;;;;;8.28;93.56;99601.13;5049034;28;20454;-54
2021/03/11 00:56:44;;;;;;;0.30;0.20;;;;;;;8.21;93.10;99582.81;5031692;28;20505;-54
2021/03/11 00:59:10;;;;;;;1.77;1.00;;;;;;;8.26;93.00;99573.84;5045124;28;20443;-54
2021/03/11 01:01:36;;;;;;;0.57;0.57;;;;;;;8.34;92.99;99578.91;5057806;28;20844;-54
2021/03/11 01:04:04;;;;;;;0.30;0.17;;;;;;;8.31;93.07;99573.69;5045085;28;20447;-53
2021/03/11 01:06:30;;;;;;;0.30;0.20;;;;;;;8.48;91.34;99560.81;5051590;28;20501;-54
2021/03/11 01:08:57;;;;;;;0.30;0.20;;;;;;;8.43;92.18;99564.53;5051543;28;20447;-54
2021/03/11 01:11:23;;;;;;;0.30;0.20;;;;;;;8.29;92.83;99549.03;5043580;28;20450;-54
2021/03/11 01:13:49;;;;;;;0.30;0.20;;;;;;;8.35;91.84;99540.94;5045030;28;20452;-54
2021/03/11 01:16:15;;;;;;;0.30;0.20;;;;;;;8.43;92.01;99540.69;5051434;28;20499;-54
2021/03/11 01:18:41;;;;;;;0.30;0.20;;;;;;;8.51;91.04;99528.97;5051228;28;20544;-54
2021/03/11 01:21:08;;;;;;;0.30;0.20;;;;;;;8.48;90.84;99539.63;5044532;28;20504;-54
2021/03/11 01:23:34;;;;;;;0.30;0.20;;;;;;;8.37;91.72;99520.59;5044040;28;20455;-54
2021/03/11 01:26:00;;;;;;;1.07;1.07;;;;;;;8.55;90.88;99513.81;5051348;28;20455;-54
2021/03/11 01:28:26;;;;;;;0.30;0.20;;;;;;;8.68;90.24;99501.03;5050925;28;20868;-54
2021/03/11 01:30:52;;;;;;;0.30;0.20;;;;;;;8.58;89.73;99503.97;5044349;28;20454;-54
2021/03/11 01:33:18;;;;;;;0.33;0.23;;;;;;;8.74;89.23;99495.53;5041467;28;21016;-54
2021/03/11 01:35:45;;;;;;;0.30;0.20;;;;;;;8.71;88.98;99491.19;5048189;28;20491;-54
2021/03/11 01:38:11;;;;;;;0.30;0.20;;;;;;;8.68;88.32;99487.78;5041048;28;20460;-54
2021/03/11 01:40:37;;;;;;;0.30;0.20;;;;;;;8.54;88.64;99483.81;5042510;28;20454;-53
2021/03/11 01:43:03;;;;;;;0.30;0.20;;;;;;;8.72;88.79;99487.63;5041905;28;20933;-54
2021/03/11 01:45:30;;;;;;;0.30;0.20;;;;;;;8.68;88.37;99477.19;5048184;28;20444;-54
2021/03/11 01:47:57;;;;;;;0.30;0.20;;;;;;;8.74;88.57;99471.66;5047704;28;20516;-54
2021/03/11 01:50:23;;;;;;;0.30;0.20;;;;;;;8.86;87.76;99450.06;5041413;28;20457;-54
2021/03/11 01:52:50;;;;;;;0.40;0.30;;;;;;;8.68;88.06;99438.31;5041453;28;20464;-53
2021/03/11 01:55:18;;;;;;;0.30;0.20;;;;;;;8.76;87.65;99438.03;5034517;28;20483;-54
2021/03/11 01:57:48;;;;;;;0.30;0.30;;;;;;;8.95;87.44;99427.66;5047742;28;20467;-54
2021/03/11 02:00:15;;;;;;;0.30;0.20;;;;;;;8.99;86.24;99431.94;5043314;28;20504;-54
2021/03/11 02:02:42;;;;;;;0.40;0.20;;;;;;;9.06;86.69;99425.50;5052253;28;20486;-54
2021/03/11 02:05:12;;;;;;;0.30;0.20;;;;;;;8.98;86.13;99423.13;5043300;28;20505;-54
2021/03/11 02:07:38;;;;;;;0.30;0.20;;;;;;;9.02;86.16;99419.44;5040627;28;20521;-54
2021/03/11 02:10:06;;;;;;;0.30;0.20;;;;;;;9.24;85.55;99421.31;5045246;28;20984;-54
2021/03/11 02:12:36;;;;;;;0.30;0.20;;;;;;;9.00;86.01;99423.06;5048160;28;20450;-54
2021/03/11 02:15:02;;;;;;;0.30;0.20;;;;;;;9.11;85.31;99403.19;5043851;28;20483;-53
2021/03/11 02:17:34;;;;;;;0.30;0.20;;;;;;;9.15;85.09;99399.50;5040637;28;20530;-54
2021/03/11 02:20:18;;;;;;;0.30;0.20;;;;;;;8.99;85.52;99406.28;5043780;28;20493;-54
2021/03/11 02:23:21;;;;;;;0.30;0.20;;;;;;;9.18;84.87;99407.38;5047077;28;20444;-54
2021/03/11 02:26:01;;;;;;;0.30;0.20;;;;;;;9.14;85.08;99403.06;5047286;28;20451;-54
2021/03/11 02:28:31;;;;;;;0.40;0.30;;;;;;;9.29;84.22;99392.81;5047143;28;20446;-55
2021/03/11 02:30:58;;;;;;;0.30;0.20;;;;;;;9.22;84.08;99386.03;5046516;28;20945;-54
2021/03/11 02:33:28;;;;;;;0.30;0.20;;;;;;;9.24;84.55;99384.19;5032182;28;20515;-54
2021/03/11 02:35:55;;;;;;;0.93;0.93;;;;;;;9.20;84.02;99379.00;5033877;28;20560;-54
2021/03/11 02:38:23;;;;;;;0.30;0.20;;;;;;;9.42;83.96;99360.47;5047136;28;20512;-54
2021/03/11 02:40:51;;;;;;;0.30;0.20;;;;;;;9.27;84.12;99347.78;5041919;28;20955;-54
2021/03/11 02:43:18;;;;;;;0.30;0.20;;;;;;;9.31;83.90;99349.41;5039915;28;20451;-54
2021/03/11 02:45:45;;;;;;;0.30;0.20;;;;;;;9.24;84.48;99331.16;5044241;28;20443;-54
2021/03/11 02:48:13;;;;;;;0.30;0.20;;;;;;;9.31;83.92;99329.97;5046949;28;20443;-54
2021/03/11 02:50:40;;;;;;;0.30;0.20;;;;;;;9.44;84.00;99324.13;5043025;28;20953;-54
2021/03/11 02:53:10;;;;;;;0.30;0.10;;;;;;;9.43;83.95;99324.19;5039859;28;20512;-54
2021/03/11 02:55:39;;;;;;;0.30;0.10;;;;;;;9.37;84.11;99327.09;5038176;28;21023;-54
2021/03/11 02:58:08;;;;;;;0.33;0.30;;;;;;;9.39;84.26;99320.81;5037661;28;20466;-54
2021/03/11 03:00:37;;;;;;;0.30;0.17;;;;;;;9.36;84.38;99315.63;5041904;28;20798;-54
2021/03/11 03:03:08;;;;;;;0.30;0.10;;;;;;;9.35;84.78;99298.00;5028630;28;20453;-54
2021/03/11 03:05:35;;;;;;;0.30;0.20;;;;;;;9.34;84.68;99306.88;5038783;28;20443;-54
2021/03/11 03:08:02;;;;;;;0.30;0.20;;;;;;;9.29;85.64;99311.47;5039773;28;20818;-54
2021/03/11 03:10:31;;;;;;;0.30;0.20;;;;;;;9.26;84.61;99314.25;5040104;28;20505;-53
2021/03/11 03:13:11;;;;;;;0.30;0.20;;;;;;;9.31;85.73;99303.44;5038551;28;20443;-54
2021/03/11 03:15:38;;;;;;;0.30;0.10;;;;;;;9.33;85.49;99313.09;5039322;28;20514;-54
2021/03/11 03:18:05;;;;;;;0.30;0.20;;;;;;;9.31;85.66;99319.38;5044397;28;20529;-54
2021/03/11 03:20:31;;;;;;;0.30;0.20;;;;;;;9.44;86.49;99317.97;5046376;28;20948;-54
2021/03/11 03:23:04;;;;;;;0.30;0.10;;;;;;;9.42;86.28;99318.03;5041581;28;20447;-54
2021/03/11 03:25:45;;;;;;;0.30;0.20;;;;;;;9.26;87.17;99310.75;5039289;28;20439;-54
2021/03/11 03:28:12;;;;;;;0.30;0.20;;;;;;;9.38;87.05;99316.44;5041596;28;20447;-54
2021/03/11 03:30:38;;;;;;;0.30;0.20;;;;;;;9.26;87.77;99318.69;5046152;28;20447;-54
2021/03/11 03:33:04;;;;;;;0.30;0.20;;;;;;;9.16;88.53;99311.09;5033425;28;20544;-54
2021/03/11 03:35:31;;;;;;;0.30;0.20;;;;;;;9.07;88.93;99303.50;5035154;28;20497;-54
2021/03/11 03:37:57;;;;;;;1.17;0.80;;;;;;;9.07;89.91;99287.59;5041102;28;20529;-54
2021/03/11 03:40:24;;;;;;;0.30;0.20;;;;;;;9.12;89.98;99293.56;5046241;28;20456;-54
2021/03/11 03:42:55;;;;;;;0.30;0.20;;;;;;;9.11;89.19;99285.69;5043037;28;20454;-54
2021/03/11 03:45:29;;;;;;;0.30;0.20;;;;;;;9.15;89.49;99281.97;5039162;28;20443;-55
2021/03/11 03:48:00;;;;;;;0.30;0.10;;;;;;;9.12;90.06;99268.84;5038972;28;20479;-54
2021/03/11 03:50:27;;;;;;;0.30;0.20;;;;;;;9.16;89.70;99275.75;5045092;28;20455;-54
2021/03/11 03:52:56;;;;;;;0.30;0.20;;;;;;;9.23;89.71;99269.31;5045810;28;20509;-54
2021/03/11 03:55:23;;;;;;;0.30;0.20;;;;;;;9.12;89.86;99255.59;5031775;28;20538;-54
2021/03/11 03:57:54;;;;;;;0.30;0.20;;;;;;;9.15;90.13;99258.97;5045578;28;20835;-54
2021/03/11 04:00:23;;;;;;;0.30;0.20;;;;;;;9.20;89.75;99258.81;5041881;28;20500;-54
2021/03/11 04:02:55;;;;;;;0.30;0.20;;;;;;;8.99;90.37;99270.25;5048632;28;20538;-54
2021/03/11 04:05:22;;;;;;;0.30;0.20;;;;;;;9.15;89.97;99266.94;5042589;28;20478;-54
2021/03/11 04:07:50;;;;;;;0.30;0.20;;;;;;;9.04;90.25;99271.78;5038837;28;20478;-54
2021/03/11 04:10:16;;;;;;;0.30;0.10;;;;;;;9.03;90.48;99277.16;5040246;28;20509;-54
2021/03/11 04:12:43;;;;;;;0.30;0.10;;;;;;;8.95;91.55;99268.66;5045436;28;20952;-54
2021/03/11 04:15:10;;;;;;;0.30;0.20;;;;;;;9.04;91.71;99257.69;5042760;28;20829;-54
2021/03/11 04:17:37;;;;;;;0.30;0.20;;;;;;;8.99;91.75;99265.81;5038624;28;20458;-54
2021/03/11 04:20:06;;;;;;;0.30;0.20;;;;;;;8.94;91.69;99262.50;5040921;28;20961;-53
2021/03/11 04:22:32;;;;;;;0.30;0.10;;;;;;;8.87;92.54;99269.78;5045111;28;20459;-54
2021/03/11 04:25:00;;;;;;;0.30;0.20;;;;;;;8.95;92.72;99266.00;5043675;28;20446;-54
2021/03/11 04:27:27;;;;;;;0.30;0.20;;;;;;;9.00;92.83;99256.94;5038374;28;20984;-54
2021/03/11 04:29:54;;;;;;;0.30;0.10;;;;;;;8.95;93.08;99252.75;5040019;28;21279;-54
2021/03/11 04:32:21;;;;;;;0.30;0.20;;;;;;;8.98;93.04;99255.28;5045502;28;20844;-53
2021/03/11 04:34:48;;;;;;;0.30;0.20;;;;;;;9.05;92.58;99244.38;5044005;28;20451;-53
2021/03/11 04:37:14;;;;;;;0.30;0.20;;;;;;;9.11;92.71;99240.63;5038611;28;20502;-53
2021/03/11 04:39:42;;;;;;;7.93;2.10;;;;;;;8.93;92.74;99242.22;5040078;28;20452;-52
2021/03/11 04:42:08;;;;;;;0.30;0.20;;;;;;;8.75;94.23;99251.72;5044203;28;20459;-55
2021/03/11 04:44:35;;;;;;;0.30;0.20;;;;;;;8.79;93.93;99240.09;5044561;28;20936;-53
2021/03/11 04:47:02;;;;;;;0.30;0.20;;;;;;;8.83;93.92;99235.53;5038176;28;20475;-52
2021/03/11 04:49:31;;;;;;;0.30;0.20;;;;;;;8.89;94.16;99237.94;5039109;28;20487;-52
2021/03/11 04:51:59;;;;;;;0.30;0.20;;;;;;;9.00;93.99;99225.13;5045204;28;20451;-52
2021/03/11 04:54:26;;;;;;;0.30;0.20;;;;;;;8.94;93.50;99224.53;5040512;28;20506;-53
2021/03/11 04:56:54;;;;;;;3.43;0.73;;;;;;;9.01;94.48;99226.00;5039479;28;20552;-53
2021/03/11 04:59:21;;;;;;;0.30;0.10;;;;;;;8.93;94.47;99223.66;5038392;28;20452;-52
2021/03/11 05:01:55;;;;;;;1.03;1.03;;;;;;;8.81;95.19;99219.69;5051789;28;20450;-52
2021/03/11 05:04:22;;;;;;;0.30;0.10;;;;;;;8.91;95.27;99206.97;5038430;28;20834;-52
2021/03/11 05:06:48;;;;;;;0.30;0.20;;;;;;;9.10;94.79;99212.38;5043576;28;20467;-52
2021/03/11 05:09:14;;;;;;;0.30;0.20;;;;;;;8.93;96.52;99217.50;5048739;28;20447;-53
2021/03/11 05:11:43;;;;;;;0.30;0.20;;;;;;;9.06;96.38;99210.78;5044577;28;20447;-53
2021/03/11 05:14:10;;;;;;;0.30;0.10;;;;;;;9.08;96.57;99214.25;5040738;28;20446;-52
2021/03/11 05:16:36;;;;;;;0.30;0.20;;;;;;;8.99;96.83;99206.66;5045347;28;20868;-53
2021/03/11 05:19:03;;;;;;;0.30;0.20;;;;;;;8.97;97.37;99216.44;5048770;28;20451;-52
2021/03/11 05:21:29;;;;;;;2.77;1.43;;;;;;;8.99;98.35;99206.66;5045398;28;20810;-52
2021/03/11 05:23:58;;;;;;;0.30;0.20;;;;;;;8.95;98.87;99189.16;5041554;28;20532;-52
2021/03/11 05:26:25;;;;;;;0.30;0.20;;;;;;;8.98;99.06;99195.19;5045058;28;20501;-52
2021/03/11 05:28:53;;;;;;;0.30;0.10;;;;;;;8.89;99.19;99193.75;5048933;28;20894;-53
2021/03/11 05:31:20;;;;;;;0.30;0.20;;;;;;;8.91;99.79;99177.81;5045864;28;20533;-53
2021/03/11 05:33:46;;;;;;;0.30;0.20;;;;;;;8.86;100.00;99188.56;5041525;28;20537;-53
2021/03/11 05:36:13;;;;;;;0.30;0.20;;;;;;;8.81;100.00;99189.69;5044353;28;20499;-54
2021/03/11 05:38:43;;;;;;;0.30;0.20;;;;;;;8.82;100.00;99194.06;5048089;28;20456;-53
2021/03/11 05:41:10;;;;;;;0.30;0.13;;;;;;;8.75;100.00;99190.78;5046393;28;20477;-53
2021/03/11 05:43:37;;;;;;;0.30;0.20;;;;;;;8.86;100.00;99191.22;5041548;28;20451;-52
2021/03/11 05:46:05;;;;;;;0.30;0.20;;;;;;;8.97;100.00;99188.16;5042580;28;21059;-52
2021/03/11 05:48:34;;;;;;;0.30;0.20;;;;;;;8.88;100.00;99191.16;5048029;28;20543;-52
2021/03/11 05:51:01;;;;;;;0.30;0.20;;;;;;;8.86;100.00;99199.16;5047228;28;20446;-53
2021/03/11 05:53:28;;;;;;;0.30;0.20;;;;;;;8.83;100.00;99206.38;5041458;28;20454;-53
2021/03/11 05:55:55;;;;;;;0.30;0.20;;;;;;;8.78;100.00;99200.41;5038296;28;20518;-52
2021/03/11 05:58:21;;;;;;;0.30;0.20;;;;;;;8.84;100.00;99198.38;5028116;28;20508;-53
2021/03/11 06:00:47;;;;;;;0.30;0.20;;;;;;;8.89;100.00;99182.28;5041339;28;20448;-52
2021/03/11 06:03:13;;;;;;;0.30;0.20;;;;;;;8.72;100.00;99163.53;5028325;28;20515;-52
2021/03/11 06:05:40;;;;;;;0.30;0.20;;;;;;;8.74;100.00;99167.00;5027920;28;20447;-53
2021/03/11 06:08:08;;;;;;;0.30;0.20;;;;;;;8.79;100.00;99163.25;5047676;28;20471;-53
2021/03/11 06:10:36;;;;;;;0.30;0.20;;;;;;;8.86;100.00;99158.56;5047961;28;20824;-53
2021/03/11 06:13:03;;;;;;;0.30;0.20;;;;;;;8.85;100.00;99151.53;5041828;28;20790;-52
2021/03/11 06:15:34;;;;;;;0.30;0.20;;;;;;;8.85;100.00;99151.53;5039933;28;20487;-52
2021/03/11 06:18:04;;;;;;;0.30;0.20;;;;;;;8.88;100.00;99138.16;5041684;28;20479;-53
2021/03/11 06:20:30;;;;;;;0.40;0.40;;;;;;;9.03;100.00;99137.53;5039148;28;20953;-52
2021/03/11 06:22:56;;;;;;;0.30;0.20;;;;;;;8.81;100.00;99144.66;5045984;28;20451;-53
2021/03/11 06:25:23;;;;;;;0.30;0.20;;;;;;;8.84;100.00;99155.13;5047454;28;20964;-52
2021/03/11 06:27:58;;;;;;;0.30;0.20;;;;;;;8.86;100.00;99150.63;5043450;28;20494;-52
2021/03/11 06:30:40;;;;;;;0.30;0.20;;;;;;;8.81;100.00;99160.53;5040582;28;20466;-53
2021/03/11 06:33:07;;;;;;;0.30;0.20;;;;;;;8.83;100.00;99159.56;5047889;28;20508;-52
2021/03/11 06:35:36;;;;;;;0.30;0.20;;;;;;;8.91;100.00;99153.97;5042118;28;20490;-57
2021/03/11 06:38:04;;;;;;;0.30;0.20;;;;;;;8.95;100.00;99134.34;5045669;28;20468;-57
2021/03/11 06:40:31;;;;;;;0.30;0.20;;;;;;;8.93;100.00;99140.66;5056987;28;20505;-57
2021/03/11 06:43:13;;;;;;;0.30;0.20;;;;;;;8.91;100.00;99127.47;5045841;28;20456;-53
2021/03/11 06:45:40;;;;;;;0.30;0.10;;;;;;;8.86;100.00;99132.06;5030377;28;20457;-52
2021/03/11 06:48:26;;;;;;;0.30;0.10;;;;;;;8.84;100.00;99140.09;5040112;28;20467;-52
2021/03/11 06:50:55;;;;;;;0.30;0.10;;;;;;;8.85;100.00;99127.69;5042436;28;20454;-53
2021/03/11 06:53:21;;;;;;;0.30;0.20;;;;;;;8.79;100.00;99125.31;5047238;28;20864;-52
2021/03/11 06:55:47;;;;;;;0.30;0.20;;;;;;;8.84;100.00;99125.97;5032236;28;20487;-53
2021/03/11 06:58:26;;;;;;;0.30;0.20;;;;;;;9.00;100.00;99115.59;5040122;28;20936;-53
2021/03/11 07:01:12;;;;;;;0.30;0.10;;;;;;;8.89;100.00;99114.25;5039354;28;21020;-52
2021/03/11 07:03:40;;;;;;;0.30;0.20;;;;;;;8.94;100.00;99119.38;5043298;28;20948;-53
2021/03/11 07:06:07;;;;;;;0.30;0.20;;;;;;;9.00;100.00;99110.31;5039690;28;20467;-52
2021/03/11 07:08:47;;;;;;;0.30;0.20;;;;;;;8.96;100.00;99117.53;5042887;28;20448;-53
2021/03/11 07:11:13;;;;;;;0.30;0.20;;;;;;;8.90;100.00;99117.75;5046876;28;20570;-52
2021/03/11 07:13:40;;;;;;;0.30;0.17;;;;;;;9.07;100.00;99133.00;5045686;28;20450;-53
2021/03/11 07:16:11;;;;;;;0.30;0.20;;;;;;;9.08;100.00;99138.22;5039628;28;20495;-52
2021/03/11 07:18:38;;;;;;;0.30;0.17;;;;;;;9.08;100.00;99126.78;5042164;28;20452;-53
2021/03/11 07:21:05;;;;;;;0.30;0.20;;;;;;;9.08;100.00;99122.31;5045924;28;20512;-54
2021/03/11 07:23:31;;;;;;;0.30;0.17;;;;;;;9.01;100.00;99110.25;5044924;28;20452;-53
2021/03/11 07:25:57;;;;;;;0.30;0.20;;;;;;;9.02;100.00;99111.97;5050800;28;20452;-53
2021/03/11 07:28:42;;;;;;;0.30;0.20;;;;;;;9.05;100.00;99124.25;5046914;28;20450;-53
2021/03/11 07:31:08;;;;;;;0.30;0.20;;;;;;;9.12;100.00;99120.41;5040052;28;20731;-52
2021/03/11 07:33:37;;;;;;;0.30;0.20;;;;;;;9.11;100.00;99124.84;5039289;28;20474;-53
2021/03/11 07:36:06;;;;;;;0.40;0.30;;;;;;;9.24;100.00;99130.50;5042121;28;20502;-52
2021/03/11 07:38:34;;;;;;;0.30;0.20;;;;;;;9.26;100.00;99122.47;5046162;28;20452;-54
2021/03/11 07:41:03;;;;;;;0.30;0.20;;;;;;;9.24;100.00;99116.38;5042561;28;21002;-52
2021/03/11 07:43:31;;;;;;;0.30;0.20;;;;;;;9.25;100.00;99102.19;5039174;28;20505;-52
2021/03/11 07:46:02;;;;;;;0.30;0.20;;;;;;;9.39;100.00;99113.94;5042093;28;20505;-53
2021/03/11 07:48:29;;;;;;;0.47;0.47;;;;;;;9.25;100.00;99112.81;5046076;28;20455;-52
2021/03/11 07:50:57;;;;;;;0.30;0.20;;;;;;;9.24;100.00;99105.78;5043778;28;20451;-53
2021/03/11 07:53:25;;;;;;;0.30;0.20;;;;;;;9.53;100.00;99108.03;5039010;28;20454;-53
2021/03/11 07:55:52;;;;;;;0.30;0.20;;;;;;;9.48;100.00;99112.69;5036373;28;20491;-52
2021/03/11 07:58:38;;;;;;;2.10;2.00;;;;;;;9.57;100.00;99106.97;5030414;28;20537;-52
2021/03/11 08:01:05;;;;;;;0.30;0.20;;;;;;;9.57;100.00;99103.47;5039137;28;20455;-53
2021/03/11 08:03:35;;;;;;;0.30;0.20;;;;;;;9.54;100.00;99092.97;5042012;28;20451;-53
2021/03/11 08:06:21;;;;;;;0.30;0.20;;;;;;;9.50;100.00;99076.34;5045752;28;20450;-53
2021/03/11 08:08:48;;;;;;;8.20;1.27;;;;;;;9.59;100.00;99070.63;5042937;28;20446;-53
2021/03/11 08:11:34;;;;;;;0.30;0.20;;;;;;;9.67;100.00;99072.94;5038773;28;20447;-52
2021/03/11 08:14:34;;;;;;;0.30;0.20;;;;;;;9.75;100.00;99069.03;5038586;28;20932;-54
2021/03/11 08:17:32;;;;;;;0.30;0.20;;;;;;;9.47;100.00;99053.47;5039264;28;20495;-53
2021/03/11 08:19:58;;;;;;;0.30;0.20;;;;;;;9.59;100.00;99059.16;5032988;28;20454;-52
2021/03/11 08:22:53;;;;;;;0.30;0.20;;;;;;;9.78;100.00;99052.09;5038711;28;20450;-53
2021/03/11 08:25:36;;;;;;;0.30;0.20;;;;;;;9.73;100.00;99049.66;5038477;28;20973;-52
2021/03/11 08:28:08;;;;;;;0.30;0.20;;;;;;;9.84;100.00;99043.00;5042420;28;20463;-53
2021/03/11 08:30:39;;;;;;;0.30;0.20;;;;;;;10.02;100.00;99034.19;5045209;28;20938;-52
2021/03/11 08:33:11;;;;;;;0.30;0.20;;;;;;;9.92;100.00;99032.91;5032578;28;20459;-53
2021/03/11 08:35:41;;;;;;;0.30;0.17;;;;;;;10.06;100.00;99027.81;5036304;28;21020;-52
2021/03/11 08:38:20;;;;;;;0.30;0.20;;;;;;;10.07;100.00;99024.22;5039534;28;20455;-52
2021/03/11 08:41:02;;;;;;;0.30;0.20;;;;;;;10.26;100.00;99017.13;5027730;28;20451;-53
2021/03/11 08:43:41;;;;;;;0.30;0.20;;;;;;;10.30;100.00;99000.13;5042531;28;20740;-53
2021/03/11 08:46:20;;;;;;;0.30;0.10;;;;;;;10.27;100.00;98988.78;5044357;28;21007;-52
2021/03/11 08:48:57;;;;;;;0.30;0.20;;;;;;;10.28;100.00;98983.41;5049394;28;20529;-52
2021/03/11 08:51:24;;;;;;;0.30;0.20;;;;;;;10.22;100.00;98981.03;5049076;28;20939;-52
2021/03/11 08:53:54;;;;;;;0.30;0.20;;;;;;;10.32;100.00;98977.00;5044294;28;20465;-52
2021/03/11 08:56:20;;;;;;;0.30;0.20;;;;;;;10.23;100.00;98961.50;5035839;28;20490;-53
2021/03/11 08:58:56;;;;;;;0.30;0.20;;;;;;;10.08;100.00;98951.59;5045613;28;21010;-50
2021/03/11 09:01:31;;;;;;;0.30;0.20;;;;;;;10.08;100.00;98960.41;5049110;28;20455;-50
2021/03/11 09:04:01;;;;;;;0.30;0.20;;;;;;;10.26;100.00;98952.53;5023576;28;20444;-49
2021/03/11 09:07:00;;;;;;;0.30;0.20;;;;;;;10.23;100.00;98952.69;5041526;28;20478;-50
2021/03/11 09:09:46;;;;;;;0.30;0.20;;;;;;;10.31;100.00;98953.19;5040748;28;20454;-50
2021/03/11 09:12:17;;;;;;;0.30;0.20;;;;;;;10.24;100.00;98954.41;5041072;28;20526;-51
2021/03/11 09:14:46;;;;;;;0.30;0.20;;;;;;;10.26;100.00;98945.41;5048306;28;20448;-50
2021/03/11 09:17:17;;;;;;;0.30;0.20;;;;;;;10.29;100.00;98933.81;5048646;28;21031;-50
2021/03/11 09:19:47;;;;;;;0.30;0.20;;;;;;;10.37;100.00;98940.44;5043561;28;20805;-50
2021/03/11 09:22:32;;;;;;;0.30;0.20;;;;;;;10.49;100.00;98925.69;5042106;28;20448;-51
2021/03/11 09:25:13;;;;;;;0.30;0.20;;;;;;;10.55;100.00;98933.38;5044402;28;20529;-50
2021/03/11 09:27:51;;;;;;;0.30;0.20;;;;;;;10.57;100.00;98931.50;5048221;28;20464;-51
2021/03/11 09:30:36;;;;;;;0.30;0.17;;;;;;;10.78;100.00;98923.34;5048532;28;20447;-52
2021/03/11 09:33:08;;;;;;;0.30;0.30;;;;;;;10.65;100.00;98923.97;5035764;28;20456;-53
2021/03/11 09:35:35;;;;;;;0.30;0.20;;;;;;;10.79;100.00;98912.63;5046381;28;20460;-52
2021/03/11 09:38:03;;;;;;;0.30;0.20;;;;;;;10.78;100.00;98921.56;5046101;28;20470;-53
2021/03/11 09:40:33;;;;;;;0.30;0.20;;;;;;;10.89;100.00;98923.66;5041392;28;20461;-52
2021/03/11 09:43:20;;;;;;;0.30;0.20;;;;;;;10.97;100.00;98910.84;5042762;28;20447;-53
2021/03/11 09:45:53;;;;;;;0.30;0.20;;;;;;;11.05;100.00;98897.13;5031241;28;20454;-53
2021/03/11 09:48:21;;;;;;;0.30;0.20;;;;;;;11.12;100.00;98906.53;5040227;28;20494;-52
2021/03/11 09:50:57;;;;;;;0.30;0.20;;;;;;;10.91;100.00;98885.41;5045429;28;20826;-52
2021/03/11 09:53:31;;;;;;;0.30;0.20;;;;;;;11.09;100.00;98893.38;5047339;28;20451;-52
2021/03/11 09:55:57;;;;;;;0.30;0.20;;;;;;;11.10;100.00;98872.03;5034901;28;20480;-53
2021/03/11 09:58:24;;;;;;;0.30;0.20;;;;;;;11.21;100.00;98882.06;5048116;28;20447;-53
2021/03/11 10:00:51;;;;;;;0.30;0.20;;;;;;;11.28;100.00;98879.00;5048163;28;20807;-53
2021/03/11 10:03:36;;;;;;;0.30;0.20;;;;;;;11.40;100.00;98871.31;5027644;28;20463;-52
2021/03/11 10:06:05;;;;;;;0.30;0.20;;;;;;;11.58;100.00;98864.97;5044766;28;20976;-52
2021/03/11 10:08:34;;;;;;;0.30;0.20;;;;;;;11.70;100.00;98866.09;5044378;28;20936;-53
2021/03/11 10:11:14;;;;;;;0.30;0.20;;;;;;;11.80;100.00;98864.66;5040993;28;21034;-53
2021/03/11 10:13:48;;;;;;;0.30;0.20;;;;;;;11.89;100.00;98857.94;5042060;28;20444;-53
2021/03/11 10:16:35;;;;;;;0.30;0.20;;;;;;;11.86;100.00;98865.16;5041298;28;20501;-53
2021/03/11 10:19:15;;;;;;;0.30;0.20;;;;;;;12.10;100.00;98862.06;5032608;28;20465;-53
2021/03/11 10:21:45;;;;;;;0.30;0.20;;;;;;;11.97;100.00;98861.03;5042793;28;20447;-52
2021/03/11 10:24:13;;;;;;;0.30;0.20;;;;;;;11.88;100.00;98862.41;5047282;28;20455;-52
2021/03/11 10:26:41;;;;;;;0.30;0.20;;;;;;;11.98;100.00;98850.28;5046884;28;20475;-51
2021/03/11 10:29:10;;;;;;;0.30;0.20;;;;;;;11.88;100.00;98849.09;5040310;28;20458;-51
2021/03/11 10:31:37;;;;;;;0.30;0.20;;;;;;;11.89;100.00;98844.63;5041032;28;20506;-51
2021/03/11 10:34:08;;;;;;;0.30;0.20;;;;;;;12.08;100.00;98840.84;5033845;28;20451;-51
2021/03/11 10:36:36;;;;;;;0.30;0.20;;;;;;;12.14;100.00;98868.91;5046735;28;20925;-51
2021/03/11 10:39:11;;;;;;;0.30;0.20;;;;;;;12.05;100.00;98854.31;5041794;28;21021;-50
2021/03/11 10:41:54;;;;;;;0.30;0.20;;;;;;;12.06;100.00;98852.50;5040486;28;20444;-51
2021/03/11 10:44:20;;;;;;;0.30;0.20;;;;;;;12.08;100.00;98840.84;5042504;28;20444;-51
2021/03/11 10:46:47;;;;;;;0.30;0.20;;;;;;;12.33;100.00;98847.38;5046806;28;20476;-51
2021/03/11 10:49:14;;;;;;;0.30;0.20;;;;;;;12.61;100.00;98830.59;5045532;28;20451;-51
2021/03/11 10:51:42;;;;;;;0.30;0.20;;;;;;;12.84;100.00;98815.88;5040319;28;20450;-52
2021/03/11 10:54:30;;;;;;;0.30;0.20;;;;;;;13.13;97.93;98827.41;5041073;28;20451;-51
2021/03/11 10:57:20;;;;;;;0.30;0.20;;;;;;;13.25;97.33;98829.34;5030105;28;20494;-52
2021/03/11 10:59:59;;;;;;;0.30;0.20;;;;;;;13.29;97.99;98817.50;5040073;28;20447;-52
2021/03/11 11:02:28;;;;;;;0.30;0.20;;;;;;;13.32;97.27;98833.34;5040314;28;20444;-52
2021/03/11 11:04:57;;;;;;;0.30;0.20;;;;;;;13.51;98.33;98851.69;5028327;28;20462;-52
2021/03/11 11:07:24;;;;;;;0.30;0.20;;;;;;;13.33;98.84;98853.72;5039637;28;20475;-51
2021/03/11 11:09:50;;;;;;;0.30;0.20;;;;;;;13.28;99.68;98859.34;5045719;28;20953;-51
2021/03/11 11:12:18;;;;;;;0.30;0.20;;;;;;;13.16;100.00;98860.09;5046655;28;20450;-52
2021/03/11 11:14:48;;;;;;;0.30;0.20;;;;;;;12.92;100.00;98851.78;5041065;28;20454;-52
2021/03/11 11:17:16;;;;;;;0.30;0.20;;;;;;;12.95;100.00;98851.59;5039518;28;20499;-52
2021/03/11 11:19:43;;;;;;;0.30;0.20;;;;;;;12.73;100.00;98838.72;5044963;28;20448;-52
2021/03/11 11:22:10;;;;;;;0.30;0.20;;;;;;;12.75;100.00;98857.31;5045184;28;20504;-53
2021/03/11 11:24:38;;;;;;;0.30;0.20;;;;;;;12.75;100.00;98855.50;5041055;28;20454;-53
2021/03/11 11:27:06;;;;;;;0.30;0.20;;;;;;;12.69;100.00;98845.19;5039162;28;20463;-53
2021/03/11 11:29:33;;;;;;;0.30;0.20;;;;;;;12.57;100.00;98851.25;5044471;28;20521;-52
2021/03/11 11:31:59;;;;;;;0.30;0.20;;;;;;;12.57;100.00;98856.56;5046109;28;20537;-53
2021/03/11 11:34:26;;;;;;;0.30;0.20;;;;;;;12.59;100.00;98859.16;5041516;28;20459;-53
2021/03/11 11:36:52;;;;;;;0.30;0.20;;;;;;;12.68;100.00;98858.59;5038906;28;20492;-52
2021/03/11 11:39:18;;;;;;;0.30;0.20;;;;;;;12.48;100.00;98849.16;5044250;28;20444;-52
2021/03/11 11:41:45;;;;;;;0.30;0.20;;;;;;;12.46;100.00;98849.22;5046075;28;20561;-52
2021/03/11 11:44:12;;;;;;;0.30;0.20;;;;;;;12.44;100.00;98848.44;5041562;28;20848;-52
2021/03/11 11:46:40;;;;;;;0.30;0.20;;;;;;;12.24;100.00;98856.78;5038933;28;20479;-52